createdAt,value
2023-11-16T00:05:05.329Z,5.54
2023-11-16T00:20:09.317Z,5.38
2023-11-16T00:35:12.595Z,5.07
2023-11-16T00:50:15.953Z,4.80
2023-11-16T01:05:19.288Z,4.66
2023-11-16T01:20:22.518Z,4.64
2023-11-16T01:35:25.676Z,4.50
2023-11-16T01:50:29.617Z,4.32
2023-11-16T02:05:35.766Z,4.06
2023-11-16T02:20:39.059Z,4.24
2023-11-16T02:35:42.300Z,4.21
2023-11-16T02:50:45.386Z,4.54
2023-11-16T03:05:48.660Z,4.47
2023-11-16T03:20:51.795Z,5.16
2023-11-16T03:35:54.998Z,5.06
2023-11-16T03:50:58.059Z,5.25
2023-11-16T04:06:01.205Z,4.99
2023-11-16T04:21:07.073Z,4.58
2023-11-16T04:36:15.121Z,4.95
2023-11-16T04:51:18.414Z,4.90
2023-11-16T05:06:21.874Z,5.17
2023-11-16T05:21:25.265Z,5.01
2023-11-16T05:36:28.740Z,4.92
2023-11-16T05:51:34.427Z,4.70
2023-11-16T06:06:38.982Z,5.19
2023-11-16T06:21:42.771Z,5.15
2023-11-16T06:36:46.924Z,5.02
2023-11-16T06:51:51.446Z,4.43
2023-11-16T07:06:55.254Z,4.74
2023-11-16T07:21:58.721Z,4.75
2023-11-16T07:37:05.237Z,5.46
2023-11-16T07:52:08.605Z,5.47
2023-11-16T08:07:12.117Z,5.95
2023-11-16T08:22:15.649Z,5.58
2023-11-16T08:37:19.976Z,6.18
2023-11-16T08:52:23.613Z,6.60
2023-11-16T09:07:26.970Z,7.11
2023-11-16T09:22:30.752Z,7.07
2023-11-16T09:37:34.413Z,7.85
2023-11-16T09:52:38.092Z,8.07
2023-11-16T10:07:42.830Z,7.66
2023-11-16T10:22:46.341Z,7.51
2023-11-16T10:37:50.255Z,7.98
2023-11-16T10:52:54.322Z,7.80
2023-11-16T11:07:57.860Z,7.88
2023-11-16T11:23:10.933Z,7.96
2023-11-16T11:38:20.868Z,7.90
2023-11-16T11:53:24.872Z,8.55
2023-11-16T12:08:39.899Z,7.84
2023-11-16T12:23:46.568Z,7.31
2023-11-16T12:38:52.560Z,7.62
2023-11-16T12:53:56.196Z,7.60
2023-11-16T13:08:59.783Z,7.45
2023-11-16T13:24:03.205Z,7.14
2023-11-16T13:39:06.808Z,6.83
2023-11-16T13:54:10.391Z,6.87
2023-11-16T14:09:14.103Z,7.03
2023-11-16T14:24:25.164Z,7.12
2023-11-16T14:39:37.081Z,7.14
2023-11-16T14:54:40.419Z,7.19
2023-11-16T15:09:43.910Z,7.43
2023-11-16T15:24:47.307Z,7.29
2023-11-16T15:39:50.638Z,7.24
2023-11-16T15:54:54.282Z,7.10
2023-11-16T16:09:57.978Z,7.00
2023-11-16T16:25:02.381Z,6.87
2023-11-16T16:40:06.832Z,6.60
2023-11-16T16:55:12.459Z,6.88
2023-11-16T17:10:16.451Z,6.51
2023-11-16T17:25:23.277Z,6.71
2023-11-16T17:40:27.930Z,6.50
2023-11-16T17:55:31.560Z,6.23
2023-11-16T18:10:35.365Z,6.61
2023-11-16T18:25:41.451Z,6.45
2023-11-16T18:40:45.857Z,6.26
2023-11-16T18:55:49.168Z,6.00
2023-11-16T19:10:52.788Z,5.97
2023-11-16T19:25:56.785Z,5.69
2023-11-16T19:41:00.624Z,5.57
2023-11-16T19:56:06.096Z,5.69
2023-11-16T20:11:12.876Z,5.68
2023-11-16T20:26:18.475Z,5.57
2023-11-16T20:41:34.866Z,5.49
2023-11-16T20:56:44.527Z,5.51
2023-11-16T21:11:48.468Z,5.47
2023-11-16T21:26:55.166Z,5.49
2023-11-16T21:41:59.557Z,5.57
2023-11-16T21:57:04.328Z,5.66
2023-11-16T22:12:09.345Z,5.74
2023-11-16T22:27:19.841Z,5.76
2023-11-16T22:42:24.425Z,5.76
2023-11-16T22:57:28.279Z,5.59
2023-11-16T23:12:36.302Z,5.89
2023-11-16T23:27:40.903Z,5.94
2023-11-16T23:42:45.095Z,6.00
2023-11-16T23:57:49.030Z,5.86
